Time;durP1;ratioP1;P1;durP2;ratioP2;P2;SDS_P1;SDS_P2;PMS_P1;PMS_P2;Temp;Humidity;BMP_temperature;BMP_pressure;BME280_temperature;BME280_humidity;BME280_pressure;Samples;Min_cycle;Max_cycle;Signal;HPM_P1;HPM_P2
2021/11/24 00:01:37;;;;;;;47.13;16.17;;;;;;;14.76;51.83;102550.97;4977288;28;20109;-61
2021/11/24 00:04:03;;;;;;;50.47;16.08;;;;;;;14.79;50.93;102556.16;4977540;28;20033;-59
2021/11/24 00:06:28;;;;;;;57.22;17.80;;;;;;;14.81;51.02;102560.44;4992605;28;20041;-59
2021/11/24 00:08:54;;;;;;;61.70;17.83;;;;;;;14.81;51.61;102551.50;4977760;28;20038;-59
2021/11/24 00:11:19;;;;;;;53.75;16.83;;;;;;;14.83;52.10;102549.53;4977900;28;20069;-61
2021/11/24 00:13:45;;;;;;;50.13;15.70;;;;;;;14.85;51.74;102553.00;4977573;28;20467;-60
2021/11/24 00:16:11;;;;;;;51.92;16.35;;;;;;;14.86;50.70;102547.47;4992471;28;20050;-59
2021/11/24 00:18:37;;;;;;;48.45;16.67;;;;;;;14.86;50.77;102547.47;4977456;28;20042;-60
2021/11/24 00:21:02;;;;;;;49.30;16.10;;;;;;;14.87;51.59;102549.22;4977248;28;20070;-59
2021/11/24 00:23:28;;;;;;;54.08;15.65;;;;;;;14.87;50.77;102540.25;4977111;28;20035;-59
2021/11/24 00:25:53;;;;;;;49.45;16.20;;;;;;;14.86;50.66;102558.28;4992503;28;20491;-60
2021/11/24 00:28:19;;;;;;;51.65;17.17;;;;;;;14.86;50.99;102547.47;4992426;28;20031;-59
2021/11/24 00:30:46;;;;;;;53.55;17.00;;;;;;;14.84;51.95;102541.34;4976194;28;20066;-59
2021/11/24 00:33:11;;;;;;;58.78;16.13;;;;;;;14.86;50.58;102546.59;4992357;28;20057;-59
2021/11/24 00:35:38;;;;;;;57.00;17.35;;;;;;;14.87;50.50;102548.34;4976513;28;20030;-60
2021/11/24 00:38:04;;;;;;;45.65;15.20;;;;;;;14.87;50.52;102548.34;4975223;28;20031;-59
2021/11/24 00:40:29;;;;;;;55.40;17.23;;;;;;;14.86;52.16;102552.88;4976982;28;20123;-59
2021/11/24 00:42:54;;;;;;;55.33;15.68;;;;;;;14.86;52.17;102546.59;4977269;28;20383;-59
2021/11/24 00:45:22;;;;;;;58.38;17.63;;;;;;;14.86;50.54;102543.91;4977288;28;20088;-59
2021/11/24 00:47:48;;;;;;;43.55;14.68;;;;;;;14.86;50.53;102546.59;4975718;28;20107;-60
2021/11/24 00:50:13;;;;;;;42.97;15.43;;;;;;;14.82;50.75;102539.72;4992206;28;20038;-59
2021/11/24 00:52:38;;;;;;;39.55;15.18;;;;;;;14.82;51.28;102535.22;4977098;28;20026;-60
2021/11/24 00:55:04;;;;;;;51.20;15.98;;;;;;;14.84;51.13;102537.78;4977068;28;20018;-59
2021/11/24 00:57:30;;;;;;;53.67;16.90;;;;;;;14.84;52.10;102535.06;4976609;28;20113;-59
2021/11/24 00:59:55;;;;;;;60.13;16.23;;;;;;;14.83;52.35;102531.50;4976917;28;20061;-59
2021/11/24 01:02:20;;;;;;;51.08;15.10;;;;;;;14.82;51.00;102534.34;4976670;28;20043;-60
2021/11/24 01:04:46;;;;;;;56.80;15.38;;;;;;;14.80;50.73;102528.16;4976424;28;20034;-60
2021/11/24 01:07:11;;;;;;;51.78;15.50;;;;;;;14.82;51.20;102535.22;4976807;28;20088;-59
2021/11/24 01:09:37;;;;;;;59.42;15.90;;;;;;;14.81;50.72;102529.91;4977017;28;20384;-59
2021/11/24 01:12:03;;;;;;;66.20;17.70;;;;;;;14.81;52.01;102538.88;4976740;28;20031;-59
2021/11/24 01:14:28;;;;;;;52.13;15.90;;;;;;;14.81;52.07;102538.88;4991239;28;20030;-60
2021/11/24 01:16:53;;;;;;;58.60;16.83;;;;;;;14.72;51.77;102517.97;4976104;28;20121;-60
2021/11/24 01:19:19;;;;;;;54.83;17.05;;;;;;;14.79;52.38;102523.78;4976421;28;20035;-60
2021/11/24 01:21:45;;;;;;;52.05;15.35;;;;;;;14.81;51.51;102527.22;4976327;28;20420;-59
2021/11/24 01:24:11;;;;;;;62.42;16.65;;;;;;;14.81;50.70;102521.81;4974518;28;20030;-60
2021/11/24 01:26:37;;;;;;;62.63;16.58;;;;;;;14.76;50.96;102514.06;4990961;28;20054;-60
2021/11/24 01:29:03;;;;;;;64.50;17.58;;;;;;;14.78;51.43;102505.84;4990831;28;20130;-59
2021/11/24 01:31:29;;;;;;;58.33;15.70;;;;;;;14.77;50.86;102505.00;4991156;28;20062;-60
2021/11/24 01:33:54;;;;;;;57.88;15.63;;;;;;;14.79;50.73;102518.38;4974979;28;20058;-59
2021/11/24 01:36:19;;;;;;;50.47;14.90;;;;;;;14.81;52.36;102511.03;4975959;28;20030;-59
2021/11/24 01:38:46;;;;;;;58.17;16.27;;;;;;;14.81;51.34;102511.03;4974590;28;20098;-60
2021/11/24 01:41:12;;;;;;;59.15;17.00;;;;;;;14.80;50.76;102512.84;4975716;28;20035;-59
2021/11/24 01:43:37;;;;;;;57.35;18.02;;;;;;;14.78;50.95;102500.47;4975530;28;20037;-60
2021/11/24 01:46:03;;;;;;;57.33;16.60;;;;;;;14.79;52.28;102515.69;4958202;28;20031;-60
2021/11/24 01:48:28;;;;;;;47.42;14.80;;;;;;;14.79;50.96;102502.19;4990184;28;20091;-59
2021/11/24 01:50:54;;;;;;;54.08;15.70;;;;;;;14.79;50.63;102521.06;4974584;28;20105;-60
2021/11/24 01:53:20;;;;;;;53.00;15.73;;;;;;;14.78;52.17;102514.81;4975823;28;20046;-59
2021/11/24 01:55:46;;;;;;;49.63;16.02;;;;;;;14.76;51.15;102502.41;4975887;28;20451;-60
2021/11/24 01:58:11;;;;;;;57.60;16.52;;;;;;;14.78;52.17;102503.16;4990667;28;20134;-60
2021/11/24 02:00:37;;;;;;;46.65;14.15;;;;;;;14.78;51.09;102504.03;4990640;28;20030;-59
2021/11/24 02:03:04;;;;;;;52.30;15.45;;;;;;;14.79;50.83;102502.19;4975431;28;20046;-61
2021/11/24 02:05:29;;;;;;;52.33;15.95;;;;;;;14.80;50.69;102490.41;4975220;28;20066;-60
2021/11/24 02:07:54;;;;;;;48.15;14.82;;;;;;;14.80;50.88;102482.31;4975656;28;20026;-59
2021/11/24 02:10:21;;;;;;;51.38;15.98;;;;;;;14.80;52.08;102480.47;4975458;28;20109;-59
2021/11/24 02:12:48;;;;;;;54.08;15.15;;;;;;;14.81;52.40;102475.94;4957898;28;20050;-59
2021/11/24 02:15:13;;;;;;;51.38;14.88;;;;;;;14.82;50.94;102477.69;4990418;28;20039;-60
2021/11/24 02:17:39;;;;;;;51.60;15.43;;;;;;;14.80;52.17;102472.38;4990351;28;20039;-60
2021/11/24 02:20:05;;;;;;;48.85;15.30;;;;;;;14.80;51.83;102471.53;4975482;28;20041;-60
2021/11/24 02:22:31;;;;;;;47.58;15.82;;;;;;;14.81;51.26;102467.84;4990189;28;20122;-60
2021/11/24 02:24:56;;;;;;;57.38;15.65;;;;;;;14.81;50.96;102460.63;4975683;28;20039;-60
2021/11/24 02:27:21;;;;;;;47.15;16.20;;;;;;;14.81;50.67;102462.47;4975094;28;20078;-60
2021/11/24 02:29:47;;;;;;;41.28;15.95;;;;;;;14.81;50.87;102457.06;4974554;28;20121;-60
2021/11/24 02:32:14;;;;;;;45.72;15.23;;;;;;;14.82;50.57;102456.09;4974909;28;20023;-60
2021/11/24 02:34:40;;;;;;;49.83;14.68;;;;;;;14.81;52.05;102457.06;4973782;28;20510;-60
2021/11/24 02:37:05;;;;;;;38.92;14.00;;;;;;;14.80;50.66;102455.34;4973449;28;20027;-60
2021/11/24 02:39:30;;;;;;;52.00;15.77;;;;;;;14.78;50.56;102446.50;4975158;28;20399;-60
2021/11/24 02:41:56;;;;;;;59.63;15.90;;;;;;;14.78;50.87;102450.06;4975048;28;20062;-60
2021/11/24 02:44:23;;;;;;;52.67;14.80;;;;;;;14.78;51.89;102443.81;4974751;28;20038;-60
2021/11/24 02:46:53;;;;;;;56.67;17.48;;;;;;;14.77;51.48;102437.53;4975001;28;20051;-60
2021/11/24 02:49:18;;;;;;;53.03;15.70;;;;;;;14.75;51.35;102427.84;4989937;28;20372;-59
2021/11/24 02:51:45;;;;;;;56.38;15.55;;;;;;;14.77;52.14;102423.22;4973494;28;20029;-59
2021/11/24 02:54:10;;;;;;;53.03;15.82;;;;;;;14.78;50.68;102427.63;4989579;28;20026;-60
2021/11/24 02:56:36;;;;;;;61.08;16.08;;;;;;;14.79;50.84;102419.44;4974663;28;20039;-60
2021/11/24 02:59:03;;;;;;;66.50;17.55;;;;;;;14.78;50.55;102424.94;4991293;28;20031;-60
2021/11/24 03:01:28;;;;;;;64.15;17.38;;;;;;;14.78;51.95;102422.22;4977231;28;20132;-60
2021/11/24 03:03:54;;;;;;;50.65;15.77;;;;;;;14.79;50.89;102413.16;4977265;28;20051;-60
2021/11/24 03:06:19;;;;;;;56.38;15.48;;;;;;;14.76;51.09;102410.69;4978189;28;20534;-60
2021/11/24 03:08:44;;;;;;;53.28;16.38;;;;;;;14.79;52.35;102415.88;4994025;28;20062;-61
2021/11/24 03:11:10;;;;;;;55.67;16.00;;;;;;;14.79;52.39;102418.56;4977446;28;20117;-59
2021/11/24 03:13:35;;;;;;;53.20;15.75;;;;;;;14.77;51.29;102407.03;4978167;28;20073;-60
2021/11/24 03:16:01;;;;;;;60.85;17.45;;;;;;;14.79;50.86;102415.88;4978819;28;20041;-61
2021/11/24 03:18:26;;;;;;;50.75;15.10;;;;;;;14.80;51.69;102412.16;4979360;28;20054;-59
2021/11/24 03:20:51;;;;;;;51.90;15.35;;;;;;;14.80;51.41;102406.78;4977839;28;20055;-61
2021/11/24 03:23:17;;;;;;;52.20;16.13;;;;;;;14.80;52.38;102401.38;4979244;28;20066;-60
2021/11/24 03:25:42;;;;;;;50.50;16.13;;;;;;;14.80;50.72;102395.97;4979064;28;20045;-59
2021/11/24 03:28:08;;;;;;;53.60;15.95;;;;;;;14.80;51.61;102390.59;4979026;28;20030;-62
2021/11/24 03:30:34;;;;;;;54.65;17.17;;;;;;;14.78;50.77;102385.31;4978666;28;20038;-59
2021/11/24 03:33:01;;;;;;;51.58;15.48;;;;;;;14.81;52.53;102384.22;4977588;28;20543;-60
2021/11/24 03:35:27;;;;;;;50.15;16.13;;;;;;;14.80;52.65;102377.09;4978845;28;20029;-59
2021/11/24 03:37:52;;;;;;;54.05;17.02;;;;;;;14.79;51.09;102367.31;4978551;28;20480;-59
2021/11/24 03:40:20;;;;;;;45.80;15.07;;;;;;;14.79;50.96;102367.31;4978234;28;20503;-60
2021/11/24 03:42:46;;;;;;;54.08;15.18;;;;;;;14.81;50.63;102365.34;4978101;28;20102;-59
2021/11/24 03:45:13;;;;;;;44.38;15.20;;;;;;;14.78;51.24;102361.03;4978324;28;20035;-60
2021/11/24 03:47:38;;;;;;;44.22;14.13;;;;;;;14.77;51.89;102353.09;4978690;28;20471;-59
2021/11/24 03:50:06;;;;;;;43.22;13.82;;;;;;;14.75;52.27;102355.03;4978691;28;20033;-59
2021/11/24 03:52:31;;;;;;;45.78;15.80;;;;;;;14.76;52.06;102345.97;4978441;28;20039;-59
2021/11/24 03:54:56;;;;;;;51.83;14.60;;;;;;;14.74;52.42;102343.38;4978543;28;20110;-60
2021/11/24 03:57:22;;;;;;;56.60;15.20;;;;;;;14.69;51.92;102334.78;4976391;28;20107;-60
2021/11/24 03:59:47;;;;;;;46.88;16.27;;;;;;;14.72;51.15;102344.47;4977749;28;20038;-59
2021/11/24 04:02:13;;;;;;;54.35;15.63;;;;;;;14.71;51.24;102342.78;4977430;28;20528;-59
2021/11/24 04:04:38;;;;;;;54.88;15.02;;;;;;;14.68;52.24;102332.22;4977879;28;20113;-60
2021/11/24 04:07:03;;;;;;;61.35;15.63;;;;;;;14.70;51.16;102341.03;4977691;28;20535;-60
2021/11/24 04:09:29;;;;;;;39.22;14.88;;;;;;;14.69;51.18;102339.31;4977324;28;20035;-60
2021/11/24 04:11:54;;;;;;;71.50;15.00;;;;;;;14.69;50.88;102336.59;4976804;28;20023;-60
2021/11/24 04:14:19;;;;;;;56.42;16.45;;;;;;;14.70;51.47;102341.03;4977462;28;20073;-60
2021/11/24 04:16:45;;;;;;;52.53;15.90;;;;;;;14.68;51.17;102340.31;4977433;28;20408;-60
2021/11/24 04:19:10;;;;;;;59.45;13.75;;;;;;;14.67;52.49;102335.88;4976682;28;20101;-60
2021/11/24 04:21:36;;;;;;;58.20;14.40;;;;;;;14.66;52.11;102332.31;4977187;28;20046;-60
2021/11/24 04:24:01;;;;;;;45.13;15.00;;;;;;;14.66;52.55;102321.53;4975746;28;20032;-60
2021/11/24 04:26:27;;;;;;;44.17;14.50;;;;;;;14.66;51.88;102329.63;4977031;28;20035;-60
2021/11/24 04:28:52;;;;;;;45.35;14.45;;;;;;;14.67;52.11;102322.38;4977140;28;20499;-60
2021/11/24 04:31:18;;;;;;;63.92;15.25;;;;;;;14.67;51.43;102323.25;4976615;28;20034;-60
2021/11/24 04:33:43;;;;;;;55.05;12.93;;;;;;;14.67;51.16;102319.69;4992024;28;20069;-61
2021/11/24 04:36:08;;;;;;;46.33;14.38;;;;;;;14.65;52.66;102319.81;4977081;28;20431;-60
2021/11/24 04:38:34;;;;;;;49.05;14.27;;;;;;;14.66;51.32;102317.97;4976735;28;20034;-59
2021/11/24 04:41:00;;;;;;;42.75;13.75;;;;;;;14.64;50.96;102306.44;4976594;28;20051;-60
2021/11/24 04:43:31;;;;;;;43.20;14.57;;;;;;;14.63;52.03;102302.06;4976947;28;20388;-59
2021/11/24 04:45:56;;;;;;;47.83;13.30;;;;;;;14.62;52.71;102300.31;4976818;28;20038;-60
2021/11/24 04:48:22;;;;;;;50.45;13.52;;;;;;;14.61;52.32;102301.28;4992219;28;20023;-59
2021/11/24 04:50:48;;;;;;;48.13;14.90;;;;;;;14.61;52.25;102304.84;4977517;28;20027;-59
2021/11/24 04:53:13;;;;;;;48.03;14.23;;;;;;;14.62;52.50;102311.09;4976842;28;20031;-59
2021/11/24 04:55:39;;;;;;;54.50;15.57;;;;;;;14.61;52.65;102306.69;4976421;28;20031;-60
2021/11/24 04:58:05;;;;;;;54.67;13.05;;;;;;;14.57;52.43;102304.22;4977093;28;20027;-60
2021/11/24 05:00:30;;;;;;;48.78;14.02;;;;;;;14.58;51.98;102305.94;4975574;28;20027;-60
2021/11/24 05:02:56;;;;;;;51.33;15.50;;;;;;;14.58;51.73;102300.56;4977565;28;20031;-60
2021/11/24 05:05:25;;;;;;;49.58;15.00;;;;;;;14.57;51.29;102304.22;4975374;28;20027;-60
2021/11/24 05:07:50;;;;;;;49.95;14.57;;;;;;;14.58;51.37;102308.66;4976913;28;20058;-60
2021/11/24 05:10:16;;;;;;;43.55;12.95;;;;;;;14.55;51.08;102298.09;4975682;28;20033;-61
2021/11/24 05:12:42;;;;;;;54.28;15.13;;;;;;;14.57;51.94;102304.22;4992027;28;20034;-59
2021/11/24 05:15:12;;;;;;;42.80;13.30;;;;;;;14.57;51.69;102304.22;4992268;28;20030;-61
2021/11/24 05:17:38;;;;;;;43.95;14.38;;;;;;;14.55;51.55;102297.22;4991912;28;20034;-60
2021/11/24 05:20:05;;;;;;;49.78;13.77;;;;;;;14.57;51.32;102298.00;4992313;28;20042;-59
2021/11/24 05:22:31;;;;;;;58.25;14.20;;;;;;;14.55;52.84;102300.78;4976690;28;20057;-59
2021/11/24 05:24:57;;;;;;;48.40;15.05;;;;;;;14.54;52.35;102295.53;4991440;28;20041;-60
2021/11/24 05:27:22;;;;;;;67.25;13.95;;;;;;;14.55;51.71;102294.53;4992154;28;20473;-60
2021/11/24 05:29:48;;;;;;;62.95;13.57;;;;;;;14.55;52.62;102295.41;4975380;28;20081;-59
2021/11/24 05:32:14;;;;;;;59.20;12.48;;;;;;;14.55;52.18;102297.22;4975237;28;20031;-59
2021/11/24 05:34:39;;;;;;;58.47;13.85;;;;;;;14.53;51.65;102289.28;4975966;28;20035;-60
2021/11/24 05:37:07;;;;;;;68.18;13.35;;;;;;;14.57;51.58;102288.03;4976052;28;20031;-61
2021/11/24 05:39:34;;;;;;;51.88;14.23;;;;;;;14.55;51.18;102287.31;4976656;28;20034;-59
2021/11/24 05:42:00;;;;;;;49.80;13.73;;;;;;;14.58;52.60;102286.22;4975224;28;20035;-59
2021/11/24 05:44:26;;;;;;;65.15;12.98;;;;;;;14.53;51.80;102275.78;4976813;28;20030;-60
2021/11/24 05:46:58;;;;;;;71.03;14.82;;;;;;;14.54;52.53;102280.19;4977402;28;20034;-61
2021/11/24 05:49:25;;;;;;;67.22;13.73;;;;;;;14.50;51.75;102275.16;4976474;28;20027;-58
2021/11/24 05:51:51;;;;;;;45.60;12.40;;;;;;;14.44;51.69;102276.50;4976904;28;20098;-62
2021/11/24 05:54:17;;;;;;;64.80;13.70;;;;;;;14.51;52.04;102283.16;4976661;28;20082;-60
2021/11/24 05:56:42;;;;;;;58.50;13.73;;;;;;;14.47;52.09;102281.66;4976585;28;20031;-60
2021/11/24 05:59:09;;;;;;;68.38;14.20;;;;;;;14.48;52.15;102277.13;4977875;28;20042;-60
2021/11/24 06:01:36;;;;;;;61.08;13.27;;;;;;;14.47;52.27;102281.66;4976869;28;20030;-63
2021/11/24 06:04:02;;;;;;;56.25;13.98;;;;;;;14.44;51.32;102273.81;4977041;28;20400;-59
2021/11/24 06:06:28;;;;;;;41.83;13.98;;;;;;;14.39;52.49;102267.91;4976966;28;20030;-60
2021/11/24 06:08:53;;;;;;;46.85;12.77;;;;;;;14.40;52.52;102275.03;4990258;28;20416;-59
2021/11/24 06:11:19;;;;;;;61.08;12.88;;;;;;;14.41;51.47;102276.72;4974548;28;20029;-60
2021/11/24 06:13:44;;;;;;;45.80;13.75;;;;;;;14.36;52.31;102268.16;4975379;28;20095;-60
2021/11/24 06:16:09;;;;;;;43.92;13.35;;;;;;;14.35;51.75;102277.19;4990075;28;20468;-60
2021/11/24 06:18:35;;;;;;;47.47;12.45;;;;;;;14.27;51.80;102260.72;4975401;28;20037;-60
2021/11/24 06:21:00;;;;;;;44.47;13.98;;;;;;;14.27;51.67;102255.34;4990081;28;20065;-59
2021/11/24 06:23:25;;;;;;;43.33;13.40;;;;;;;14.32;52.54;102265.81;4973766;28;20027;-60
2021/11/24 06:25:51;;;;;;;41.35;13.45;;;;;;;14.32;51.60;102266.66;4975457;28;20507;-63
2021/11/24 06:28:16;;;;;;;43.53;14.70;;;;;;;14.30;51.53;102260.50;4973844;28;20495;-60
2021/11/24 06:30:42;;;;;;;51.25;16.05;;;;;;;14.29;52.33;102260.63;4974992;28;20495;-60
2021/11/24 06:33:07;;;;;;;46.65;14.63;;;;;;;14.31;53.00;102259.53;4990198;28;20038;-60
2021/11/24 06:35:33;;;;;;;47.50;13.77;;;;;;;14.25;51.90;102251.91;4979157;28;20109;-60
2021/11/24 06:37:58;;;;;;;48.15;14.07;;;;;;;14.30;51.42;102255.09;4977850;28;20031;-60
2021/11/24 06:40:24;;;;;;;61.25;15.52;;;;;;;14.29;51.64;102250.69;4994087;28;20480;-60
2021/11/24 06:42:49;;;;;;;66.88;16.45;;;;;;;14.27;51.84;102249.94;4979326;28;20027;-59
2021/11/24 06:45:15;;;;;;;54.20;16.88;;;;;;;14.30;52.66;102249.72;4979147;28;20034;-60
2021/11/24 06:47:42;;;;;;;61.53;15.75;;;;;;;14.31;51.61;102254.13;4977619;28;20023;-59
2021/11/24 06:50:09;;;;;;;57.65;14.70;;;;;;;14.30;52.52;102252.41;4993671;28;20463;-60
2021/11/24 06:52:35;;;;;;;58.75;14.10;;;;;;;14.29;52.34;102250.69;4993815;28;20484;-59
2021/11/24 06:55:00;;;;;;;57.70;15.75;;;;;;;14.25;51.97;102238.44;4978691;28;20022;-59
2021/11/24 06:57:26;;;;;;;51.28;14.20;;;;;;;14.29;51.35;102239.88;4993832;28;20019;-59
2021/11/24 06:59:51;;;;;;;55.08;15.35;;;;;;;14.30;52.33;102244.31;4993704;28;20031;-60
2021/11/24 07:02:17;;;;;;;54.83;13.65;;;;;;;14.33;51.83;102254.03;4978781;28;20101;-60
2021/11/24 07:04:42;;;;;;;59.08;14.60;;;;;;;14.32;51.64;102250.47;4979793;28;20110;-59
2021/11/24 07:07:08;;;;;;;50.92;13.70;;;;;;;14.30;51.58;102244.31;4994850;28;20031;-59
2021/11/24 07:09:33;;;;;;;57.15;13.65;;;;;;;14.33;52.00;102249.50;4994977;28;20031;-59
2021/11/24 07:11:58;;;;;;;55.45;14.70;;;;;;;14.35;51.27;102244.84;4996810;28;20030;-59
2021/11/24 07:14:24;;;;;;;46.40;14.77;;;;;;;14.31;51.88;102248.75;4995592;28;20037;-59
2021/11/24 07:16:49;;;;;;;50.45;12.18;;;;;;;14.27;51.14;102244.56;4977597;28;20077;-60
2021/11/24 07:19:16;;;;;;;53.08;13.80;;;;;;;14.29;51.50;102250.69;4977657;28;20484;-59
2021/11/24 07:21:47;;;;;;;47.67;13.98;;;;;;;14.31;51.93;102247.88;4978550;28;20065;-59
2021/11/24 07:24:14;;;;;;;52.88;13.27;;;;;;;14.32;51.33;102250.47;4978524;28;20035;-59
2021/11/24 07:26:40;;;;;;;55.55;14.70;;;;;;;14.33;52.43;102241.41;4978677;28;20027;-60
2021/11/24 07:29:05;;;;;;;52.60;14.85;;;;;;;14.34;52.02;102245.84;4978376;28;20034;-59
2021/11/24 07:31:30;;;;;;;33.40;13.15;;;;;;;14.36;51.15;102251.97;4978417;28;20577;-60
2021/11/24 07:33:56;;;;;;;35.65;12.07;;;;;;;14.33;51.55;102246.81;4978748;28;20023;-59
2021/11/24 07:36:21;;;;;;;32.65;11.38;;;;;;;14.34;52.69;102251.25;4993630;28;20070;-61
2021/11/24 07:38:46;;;;;;;31.10;11.38;;;;;;;14.33;52.42;102245.94;4978582;28;20447;-59
2021/11/24 07:41:12;;;;;;;30.10;10.85;;;;;;;14.31;50.99;102248.75;4978510;28;20062;-60
2021/11/24 07:43:37;;;;;;;37.22;11.25;;;;;;;14.31;52.02;102245.19;4978412;28;20035;-61
2021/11/24 07:46:03;;;;;;;32.50;11.55;;;;;;;14.32;52.59;102245.09;4975862;28;20023;-60
2021/11/24 07:48:28;;;;;;;28.73;10.93;;;;;;;14.33;52.02;102246.81;4993090;28;20502;-60
2021/11/24 07:50:53;;;;;;;41.30;13.18;;;;;;;14.34;51.86;102240.44;4977794;28;20035;-60
2021/11/24 07:53:19;;;;;;;38.80;12.25;;;;;;;14.34;51.95;102242.28;4977572;28;20027;-60
2021/11/24 07:55:44;;;;;;;30.58;11.43;;;;;;;14.34;51.26;102236.91;4978403;28;20032;-60
2021/11/24 07:58:12;;;;;;;43.65;13.15;;;;;;;14.35;51.20;102234.06;4978010;28;20034;-60
2021/11/24 08:00:37;;;;;;;39.97;12.10;;;;;;;14.38;52.32;102230.25;4978338;28;20058;-60
2021/11/24 08:03:03;;;;;;;35.58;11.75;;;;;;;14.38;51.30;102228.44;4977772;28;20027;-60
2021/11/24 08:05:28;;;;;;;40.85;12.98;;;;;;;14.36;51.44;102222.31;4977237;28;20059;-60
2021/11/24 08:07:54;;;;;;;36.58;11.85;;;;;;;14.39;52.13;102224.78;4977388;28;20451;-60
2021/11/24 08:10:20;;;;;;;36.53;12.20;;;;;;;14.40;52.67;102226.50;4976789;28;20460;-60
2021/11/24 08:12:46;;;;;;;35.83;10.57;;;;;;;14.41;51.68;102216.56;4977634;28;20034;-60
2021/11/24 08:15:11;;;;;;;31.50;11.57;;;;;;;14.46;52.42;102209.81;4991987;28;20027;-60
2021/11/24 08:17:36;;;;;;;33.92;10.55;;;;;;;14.49;52.38;102209.59;4977151;28;20042;-61
2021/11/24 08:20:04;;;;;;;38.50;11.77;;;;;;;14.52;51.72;102208.47;4977283;28;20503;-59
2021/11/24 08:22:30;;;;;;;34.65;12.30;;;;;;;14.50;52.50;102197.81;4975846;28;20051;-60
2021/11/24 08:24:55;;;;;;;44.75;11.68;;;;;;;14.57;52.30;102215.22;4975650;28;20031;-61
2021/11/24 08:27:21;;;;;;;44.60;12.23;;;;;;;14.53;51.27;102200.28;4976805;28;20472;-60
2021/11/24 08:29:46;;;;;;;37.70;12.50;;;;;;;14.60;51.48;102203.34;4992235;28;20038;-60
2021/11/24 08:32:11;;;;;;;40.42;11.98;;;;;;;14.61;50.56;102201.50;4977101;28;20030;-61
2021/11/24 08:34:37;;;;;;;46.72;12.40;;;;;;;14.57;51.04;102199.03;4992532;28;20074;-60
2021/11/24 08:37:03;;;;;;;39.70;12.20;;;;;;;14.61;50.98;102196.13;4991903;28;20042;-60
2021/11/24 08:39:28;;;;;;;53.10;12.77;;;;;;;14.61;52.03;102204.19;4975719;28;20026;-59
2021/11/24 08:41:53;;;;;;;44.72;14.18;;;;;;;14.61;52.00;102201.50;4991611;28;20031;-60
2021/11/24 08:44:19;;;;;;;43.38;11.93;;;;;;;14.63;51.29;102199.56;4975770;28;20074;-60
2021/11/24 08:46:44;;;;;;;52.00;14.23;;;;;;;14.61;51.83;102190.72;4977203;28;20069;-60
2021/11/24 08:49:10;;;;;;;47.67;13.32;;;;;;;14.62;51.70;102184.34;4976805;28;20031;-61
2021/11/24 08:51:37;;;;;;;41.40;12.18;;;;;;;14.60;51.27;102189.03;4992150;28;20031;-61
2021/11/24 08:54:06;;;;;;;50.50;13.55;;;;;;;14.61;52.17;102186.19;4977081;28;20034;-60
2021/11/24 08:56:34;;;;;;;50.95;14.05;;;;;;;14.60;52.46;102183.63;4976863;28;20480;-61
2021/11/24 08:59:02;;;;;;;42.45;12.07;;;;;;;14.53;51.12;102175.16;4991855;28;20026;-60
2021/11/24 09:01:27;;;;;;;51.75;14.18;;;;;;;14.53;50.68;102178.72;4977004;28;20027;-60
2021/11/24 09:03:53;;;;;;;45.05;13.90;;;;;;;14.56;51.96;102172.22;4991842;28;20085;-60
2021/11/24 09:06:18;;;;;;;53.13;13.90;;;;;;;14.55;50.88;102167.78;4976776;28;20025;-60
2021/11/24 09:08:44;;;;;;;40.28;13.35;;;;;;;14.56;52.24;102162.28;4976599;28;20027;-62
2021/11/24 09:11:09;;;;;;;54.67;16.20;;;;;;;14.51;51.79;102161.81;4976551;28;20139;-60
2021/11/24 09:13:35;;;;;;;47.33;15.20;;;;;;;14.53;52.09;102167.94;4976694;28;20031;-60
2021/11/24 09:16:00;;;;;;;59.35;15.32;;;;;;;14.56;52.09;102162.28;4976674;28;20062;-60
2021/11/24 09:18:26;;;;;;;65.18;14.27;;;;;;;14.57;51.27;102158.59;4976478;28;20444;-60
2021/11/24 09:20:51;;;;;;;52.05;14.35;;;;;;;14.58;51.53;102160.31;4990992;28;20042;-60
2021/11/24 09:23:19;;;;;;;54.70;15.27;;;;;;;14.61;50.54;102159.22;4976441;28;20037;-60
2021/11/24 09:25:50;;;;;;;47.63;14.57;;;;;;;14.62;50.94;102162.78;4975510;28;20041;-60
2021/11/24 09:28:19;;;;;;;61.58;16.05;;;;;;;14.61;51.17;102158.34;4976215;28;20031;-60
2021/11/24 09:30:44;;;;;;;58.47;15.73;;;;;;;14.61;51.47;102152.97;4976461;28;20035;-60
2021/11/24 09:33:10;;;;;;;60.15;14.40;;;;;;;14.65;52.03;102154.44;4976564;28;20476;-60
2021/11/24 09:35:36;;;;;;;58.03;14.82;;;;;;;14.65;52.00;102149.91;4976242;28;20027;-61
2021/11/24 09:38:02;;;;;;;56.88;15.15;;;;;;;14.66;52.15;102148.06;4975282;28;20031;-60
2021/11/24 09:40:28;;;;;;;57.70;13.50;;;;;;;14.68;51.54;102146.97;4976764;28;20029;-60
2021/11/24 09:42:58;;;;;;;49.83;14.75;;;;;;;14.67;50.76;102137.16;4975368;28;20027;-60
2021/11/24 09:45:24;;;;;;;59.67;14.05;;;;;;;14.73;52.01;102141.19;4976144;28;20026;-60
2021/11/24 09:47:51;;;;;;;59.83;15.07;;;;;;;14.75;51.12;102133.84;4974747;28;20093;-60
2021/11/24 09:50:22;;;;;;;67.43;14.82;;;;;;;14.78;51.70;102133.59;4975890;28;20027;-60
2021/11/24 09:52:48;;;;;;;46.75;16.02;;;;;;;14.79;52.00;102132.63;4975822;28;20030;-60
2021/11/24 09:55:13;;;;;;;57.97;18.75;;;;;;;14.78;51.75;102122.81;4990753;28;20095;-60
2021/11/24 09:57:39;;;;;;;63.72;16.42;;;;;;;14.80;50.69;102110.91;4975557;28;20038;-60
2021/11/24 10:00:06;;;;;;;48.85;15.95;;;;;;;14.85;51.08;102124.03;4975222;28;20412;-61
2021/11/24 10:02:31;;;;;;;51.65;16.02;;;;;;;14.83;51.42;102109.78;4990360;28;20030;-62
2021/11/24 10:04:57;;;;;;;46.00;14.70;;;;;;;14.87;51.63;102111.25;4990664;28;20106;-61
2021/11/24 10:07:26;;;;;;;50.45;16.23;;;;;;;14.86;51.96;102104.16;4975298;28;20026;-61
2021/11/24 10:09:51;;;;;;;62.38;14.73;;;;;;;14.93;51.65;102102.69;4974773;28;20041;-61
2021/11/24 10:12:18;;;;;;;55.95;15.77;;;;;;;14.95;51.35;102098.00;4975115;28;20034;-61
2021/11/24 10:14:44;;;;;;;48.90;14.75;;;;;;;14.89;51.28;102074.22;4990206;28;20027;-61
2021/11/24 10:17:12;;;;;;;47.47;14.48;;;;;;;14.96;51.66;102078.16;4974254;28;20030;-61
2021/11/24 10:19:38;;;;;;;54.33;15.73;;;;;;;15.07;50.12;102092.44;4990038;28;20436;-61
2021/11/24 10:22:07;;;;;;;61.45;14.63;;;;;;;15.11;51.81;102080.41;4975062;28;20081;-61
2021/11/24 10:24:41;;;;;;;50.20;15.45;;;;;;;15.20;50.88;102092.28;4974940;28;20094;-61
2021/11/24 10:27:09;;;;;;;46.08;15.40;;;;;;;15.26;51.75;102077.41;4975472;28;20023;-61
2021/11/24 10:29:35;;;;;;;62.28;15.43;;;;;;;15.31;50.74;102073.34;4990233;28;20035;-60
2021/11/24 10:32:06;;;;;;;45.60;14.30;;;;;;;15.34;51.46;102075.78;4990317;28;20034;-61
2021/11/24 10:34:38;;;;;;;44.00;13.80;;;;;;;15.39;51.41;102064.59;4974089;28;20027;-61
2021/11/24 10:37:09;;;;;;;51.75;16.92;;;;;;;15.37;51.23;102059.34;4974054;28;20105;-61
2021/11/24 10:39:42;;;;;;;55.28;16.38;;;;;;;15.44;51.30;102060.50;4990316;28;20029;-60
2021/11/24 10:42:14;;;;;;;;;;;;;;;15.46;51.15;102061.28;4975815;28;20089;-60
2021/11/24 10:44:45;;;;;;;41.95;14.73;;;;;;;15.48;49.94;102042.25;4975173;28;19921;-61
2021/11/24 10:47:13;;;;;;;43.40;15.38;;;;;;;15.53;51.37;102040.00;4989509;28;20170;-60
2021/11/24 10:49:45;;;;;;;51.67;16.17;;;;;;;15.56;51.02;102035.19;4974091;28;20454;-61
2021/11/24 10:52:27;;;;;;;58.33;17.58;;;;;;;15.60;50.40;102025.88;4973619;28;20031;-61
2021/11/24 10:55:00;;;;;;;47.30;16.67;;;;;;;15.60;50.69;102028.56;4975043;28;20025;-61
2021/11/24 10:57:27;;;;;;;45.25;15.48;;;;;;;15.63;49.63;102017.47;4975492;28;20486;-61
2021/11/24 10:59:58;;;;;;;58.92;16.80;;;;;;;15.63;50.67;102009.34;4974160;28;20039;-61
2021/11/24 11:02:24;;;;;;;44.58;14.98;;;;;;;15.65;50.24;102010.09;4973426;28;20070;-61
2021/11/24 11:04:53;;;;;;;42.72;15.40;;;;;;;15.69;49.20;102006.13;4974618;28;20480;-61